Time;durP1;ratioP1;P1;durP2;ratioP2;P2;SDS_P1;SDS_P2;PMS_P1;PMS_P2;Temp;Humidity;BMP_temperature;BMP_pressure;BME280_temperature;BME280_humidity;BME280_pressure;Samples;Min_cycle;Max_cycle;Signal;HPM_P1;HPM_P2
2023/12/28 00:01:55;;;;;;;22.20;1.90;;;9.90;31.80;;;;;;5054764;28;20153;-80
2023/12/28 00:04:21;;;;;;;19.07;1.70;;;9.90;37.00;;;;;;5055029;28;20185;-81
2023/12/28 00:06:47;;;;;;;19.53;1.70;;;9.90;44.40;;;;;;5055426;28;20166;-81
2023/12/28 00:09:12;;;;;;;17.90;2.00;;;9.90;57.50;;;;;;5055887;28;20169;-81
2023/12/28 00:11:39;;;;;;;18.63;1.90;;;9.80;68.00;;;;;;5038714;28;20265;-81
2023/12/28 00:14:05;;;;;;;21.23;2.30;;;9.80;67.20;;;;;;5058040;28;20165;-81
2023/12/28 00:16:34;;;;;;;17.57;1.80;;;9.90;65.80;;;;;;5059669;28;20247;-82
2023/12/28 00:19:01;;;;;;;19.83;2.30;;;9.80;74.40;;;;;;5059399;28;20193;-82
2023/12/28 00:21:27;;;;;;;18.70;2.35;;;9.80;84.10;;;;;;5041858;28;20184;-82
2023/12/28 00:23:53;;;;;;;18.23;1.70;;;9.80;91.10;;;;;;5059682;28;20157;-81
2023/12/28 00:26:21;;;;;;;19.50;2.07;;;9.80;96.80;;;;;;5041632;28;20753;-81
2023/12/28 00:28:47;;;;;;;22.15;2.60;;;9.80;97.80;;;;;;5041431;28;20169;-81
2023/12/28 00:31:13;;;;;;;18.70;1.90;;;9.70;99.90;;;;;;5058569;28;20642;-82
2023/12/28 00:33:38;;;;;;;17.67;1.70;;;9.70;99.90;;;;;;5059637;28;20180;-81
2023/12/28 00:36:04;;;;;;;18.80;1.80;;;9.70;99.90;;;;;;5041099;28;20197;-81
2023/12/28 00:38:30;;;;;;;18.60;1.83;;;9.70;99.90;;;;;;5041051;28;20227;-82
2023/12/28 00:40:57;;;;;;;20.73;1.77;;;9.70;99.90;;;;;;5059044;28;20415;-82
2023/12/28 00:43:23;;;;;;;19.17;2.05;;;9.70;99.90;;;;;;5059327;28;20165;-81
2023/12/28 00:45:48;;;;;;;18.33;2.10;;;9.80;99.90;;;;;;5041182;28;20181;-81
2023/12/28 00:48:14;;;;;;;18.90;1.80;;;9.70;99.90;;;;;;5040593;28;20170;-81
2023/12/28 00:50:40;;;;;;;18.37;1.70;;;9.70;99.90;;;;;;5041651;28;20244;-81
2023/12/28 00:53:06;;;;;;;19.60;1.87;;;9.70;99.90;;;;;;5058605;28;20990;-81
2023/12/28 00:55:31;;;;;;;19.23;2.23;;;9.70;99.90;;;;;;5059185;28;20674;-81
2023/12/28 00:58:00;;;;;;;18.27;2.00;;;9.70;99.90;;;;;;5058354;28;20531;-81
2023/12/28 01:00:26;;;;;;;18.73;2.15;;;9.70;99.90;;;;;;5058565;28;20443;-81
2023/12/28 01:02:52;;;;;;;17.80;1.77;;;9.70;99.90;;;;;;5040800;28;20242;-82
2023/12/28 01:05:17;;;;;;;18.77;1.73;;;9.70;99.90;;;;;;5058492;28;20181;-81
2023/12/28 01:07:43;;;;;;;19.47;2.27;;;9.80;99.90;;;;;;5058151;28;20906;-81
2023/12/28 01:10:09;;;;;;;19.37;1.60;;;9.80;99.90;;;;;;5058339;28;20614;-81
2023/12/28 01:12:34;;;;;;;18.17;2.00;;;9.80;99.90;;;;;;5057926;28;20165;-81
2023/12/28 01:15:00;;;;;;;17.97;1.80;;;9.80;99.90;;;;;;5058016;28;20189;-81
2023/12/28 01:17:26;;;;;;;21.20;1.70;;;9.70;99.90;;;;;;5057953;28;20166;-80
2023/12/28 01:19:51;;;;;;;18.83;1.80;;;9.70;99.90;;;;;;5039069;28;20224;-81
2023/12/28 01:22:17;;;;;;;18.60;1.90;;;9.70;99.90;;;;;;5039239;28;20161;-80
2023/12/28 01:24:46;;;;;;;18.40;1.80;;;9.70;99.90;;;;;;5038804;28;20192;-80
2023/12/28 01:27:12;;;;;;;17.83;1.60;;;9.70;99.90;;;;;;5056377;28;20161;-81
2023/12/28 01:29:38;;;;;;;17.93;1.53;;;9.70;99.90;;;;;;5056681;28;20215;-80
2023/12/28 01:32:04;;;;;;;18.80;1.53;;;9.70;99.90;;;;;;5056428;28;20204;-80
2023/12/28 01:34:29;;;;;;;17.63;1.42;;;9.70;99.90;;;;;;5056998;28;20185;-80
2023/12/28 01:36:55;;;;;;;18.50;1.70;;;9.60;99.90;;;;;;5056824;28;20579;-81
2023/12/28 01:39:21;;;;;;;18.17;1.37;;;9.60;99.90;;;;;;5056857;28;20189;-80
2023/12/28 01:41:46;;;;;;;17.90;1.50;;;9.50;99.90;;;;;;5056586;28;20245;-80
2023/12/28 01:44:12;;;;;;;17.73;1.90;;;9.60;99.90;;;;;;5058274;28;20508;-81
2023/12/28 01:46:38;;;;;;;17.70;1.20;;;9.60;99.90;;;;;;5058218;28;20161;-81
2023/12/28 01:49:05;;;;;;;18.38;1.42;;;9.60;99.90;;;;;;5057822;28;20169;-81
2023/12/28 01:51:31;;;;;;;17.73;1.30;;;9.60;99.90;;;;;;5039650;28;20227;-81
2023/12/28 01:53:58;;;;;;;17.63;1.30;;;9.60;99.90;;;;;;5057245;28;20268;-81
2023/12/28 01:56:24;;;;;;;17.73;1.10;;;9.60;99.90;;;;;;5124565;22;20278;-81
2023/12/28 01:58:52;;;;;;;18.25;1.60;;;9.60;99.90;;;;;;5215085;22;20224;-81
2023/12/28 02:01:18;;;;;;;18.05;1.17;;;9.60;99.90;;;;;;5041031;28;20165;-81
2023/12/28 02:03:44;;;;;;;17.70;1.20;;;9.60;99.90;;;;;;5058341;28;20158;-81
2023/12/28 02:06:10;;;;;;;18.45;1.58;;;9.60;99.90;;;;;;5058145;28;20200;-81
2023/12/28 02:08:36;;;;;;;17.90;1.25;;;9.60;99.90;;;;;;5058637;28;20606;-82
2023/12/28 02:11:02;;;;;;;17.80;1.40;;;9.60;99.90;;;;;;5059254;28;20172;-81
2023/12/28 02:13:28;;;;;;;17.85;1.35;;;9.60;99.90;;;;;;5058275;28;20185;-81
2023/12/28 02:16:12;;;;;;;17.87;1.50;;;9.60;99.90;;;;;;5058009;28;20181;-81
2023/12/28 02:18:49;;;;;;;17.77;1.50;;;9.60;99.90;;;;;;5040218;28;20169;-82
2023/12/28 02:21:15;;;;;;;18.48;1.30;;;9.60;99.90;;;;;;5058947;28;20525;-81
2023/12/28 02:23:49;;;;;;;17.88;1.27;;;9.60;99.90;;;;;;5058679;28;20161;-82
2023/12/28 02:26:19;;;;;;;17.40;1.10;;;9.60;99.90;;;;;;5041204;28;20199;-81
2023/12/28 02:28:47;;;;;;;17.52;1.30;;;9.60;99.90;;;;;;5058134;28;20180;-80
2023/12/28 02:31:25;;;;;;;18.80;1.50;;;9.60;99.90;;;;;;5057702;28;20165;-81
2023/12/28 02:33:57;;;;;;;18.20;1.20;;;9.60;99.90;;;;;;5058725;28;20498;-81
2023/12/28 02:36:26;;;;;;;17.35;1.10;;;9.50;99.90;;;;;;5040106;28;20196;-81
2023/12/28 02:38:56;;;;;;;17.25;1.30;;;9.60;99.90;;;;;;5058007;28;20211;-81
2023/12/28 02:41:22;;;;;;;18.42;1.50;;;9.60;99.90;;;;;;5057857;28;20220;-81
2023/12/28 02:43:48;;;;;;;17.35;1.15;;;9.60;99.90;;;;;;5057777;28;20167;-81
2023/12/28 02:46:14;;;;;;;17.60;1.30;;;9.60;99.90;;;;;;5040158;28;20185;-82
2023/12/28 02:48:40;;;;;;;18.17;1.50;;;9.60;99.90;;;;;;5057645;28;20303;-81
2023/12/28 02:51:06;;;;;;;17.73;1.43;;;9.60;99.90;;;;;;5057830;28;20216;-82
2023/12/28 02:53:31;;;;;;;19.37;1.73;;;9.60;99.90;;;;;;5039624;28;20169;-82
2023/12/28 02:55:57;;;;;;;18.77;1.60;;;9.60;99.90;;;;;;5057751;28;20419;-82
2023/12/28 02:58:22;;;;;;;25.83;1.73;;;9.60;99.90;;;;;;5057531;28;20161;-82
2023/12/28 03:00:48;;;;;;;18.60;1.37;;;9.50;99.90;;;;;;5057506;28;20177;-82
2023/12/28 03:03:14;;;;;;;18.53;1.83;;;9.50;99.90;;;;;;5039710;28;20165;-82
2023/12/28 03:05:41;;;;;;;18.00;1.40;;;9.50;99.90;;;;;;5057266;28;20423;-81
2023/12/28 03:08:07;;;;;;;17.85;1.50;;;9.50;99.90;;;;;;5040078;28;20238;-81
2023/12/28 03:10:32;;;;;;;18.60;1.80;;;9.50;99.90;;;;;;5040051;28;20169;-82
2023/12/28 03:12:58;;;;;;;17.83;1.50;;;9.50;99.90;;;;;;5057309;28;20403;-81
2023/12/28 03:15:24;;;;;;;18.27;1.27;;;9.50;99.90;;;;;;5058301;28;20245;-82
2023/12/28 03:17:49;;;;;;;18.77;1.40;;;9.50;99.90;;;;;;5058608;28;20165;-81
2023/12/28 03:20:18;;;;;;;17.60;1.27;;;9.40;99.90;;;;;;5057557;28;20494;-82
2023/12/28 03:22:44;;;;;;;17.77;1.38;;;9.40;99.90;;;;;;5056898;28;20164;-81
2023/12/28 03:25:09;;;;;;;18.73;1.50;;;9.40;99.90;;;;;;5056926;28;20180;-82
2023/12/28 03:27:35;;;;;;;18.73;1.50;;;9.40;99.90;;;;;;5057407;28;20249;-82
2023/12/28 03:30:01;;;;;;;18.37;1.83;;;9.40;99.90;;;;;;5039502;28;20169;-82
2023/12/28 03:32:26;;;;;;;19.03;2.03;;;9.40;99.90;;;;;;5057644;28;20165;-81
2023/12/28 03:34:52;;;;;;;19.10;1.80;;;9.40;99.90;;;;;;5039290;28;20282;-81
2023/12/28 03:37:17;;;;;;;18.00;1.50;;;9.40;99.90;;;;;;5039404;28;20173;-81
2023/12/28 03:39:43;;;;;;;17.97;1.50;;;9.40;99.90;;;;;;5039345;28;20193;-81
2023/12/28 03:42:09;;;;;;;18.43;1.67;;;9.40;99.90;;;;;;5056730;28;20161;-81
2023/12/28 03:44:35;;;;;;;17.40;1.17;;;9.40;99.90;;;;;;5039321;28;20185;-81
2023/12/28 03:47:01;;;;;;;18.23;1.53;;;9.30;99.90;;;;;;5057164;28;20183;-82
2023/12/28 03:49:26;;;;;;;17.60;1.40;;;9.30;99.90;;;;;;5058634;28;20165;-82
2023/12/28 03:51:52;;;;;;;17.70;1.50;;;9.30;99.90;;;;;;5061229;28;20176;-81
2023/12/28 03:54:18;;;;;;;18.00;1.43;;;9.20;99.90;;;;;;5060946;28;20165;-81
2023/12/28 03:56:48;;;;;;;20.48;1.85;;;9.20;99.90;;;;;;5060679;28;20174;-81
2023/12/28 03:59:17;;;;;;;19.42;1.80;;;9.20;99.90;;;;;;5060800;28;20228;-81
2023/12/28 04:01:44;;;;;;;17.88;1.75;;;9.20;99.90;;;;;;5059970;28;20161;-81
2023/12/28 04:04:10;;;;;;;17.95;1.80;;;9.20;99.90;;;;;;5041713;28;20165;-81
2023/12/28 04:06:36;;;;;;;17.77;1.52;;;9.10;99.90;;;;;;5058904;28;20631;-81
2023/12/28 04:09:02;;;;;;;18.85;1.90;;;9.10;99.90;;;;;;5040822;28;20215;-80
2023/12/28 04:11:28;;;;;;;18.90;1.73;;;9.10;99.90;;;;;;5058691;28;20165;-81
2023/12/28 04:13:54;;;;;;;19.37;1.70;;;9.10;99.90;;;;;;5058643;28;20161;-81
2023/12/28 04:16:20;;;;;;;19.10;1.50;;;9.00;99.90;;;;;;5058498;28;20566;-80
2023/12/28 04:18:46;;;;;;;19.87;2.20;;;9.00;99.90;;;;;;5058757;28;20162;-80
2023/12/28 04:21:12;;;;;;;20.00;1.80;;;8.90;99.90;;;;;;5040649;28;20172;-81
2023/12/28 04:23:39;;;;;;;17.95;1.52;;;8.80;99.90;;;;;;5058242;28;20157;-81
2023/12/28 04:26:05;;;;;;;20.15;1.25;;;8.80;99.90;;;;;;5058645;28;20207;-81
2023/12/28 04:28:31;;;;;;;18.93;1.90;;;8.80;99.90;;;;;;5040364;28;20170;-81
2023/12/28 04:30:56;;;;;;;18.67;1.57;;;8.70;99.90;;;;;;5058477;28;20949;-81
2023/12/28 04:33:22;;;;;;;18.30;1.93;;;8.80;99.90;;;;;;5057722;28;20169;-80
2023/12/28 04:35:49;;;;;;;18.47;1.63;;;8.80;99.90;;;;;;5039971;28;20196;-80
2023/12/28 04:38:14;;;;;;;18.48;1.83;;;8.70;99.90;;;;;;5057969;28;20400;-81
2023/12/28 04:40:41;;;;;;;17.97;1.97;;;8.70;99.90;;;;;;5058148;28;20258;-80
2023/12/28 04:43:06;;;;;;;19.95;1.40;;;8.60;99.90;;;;;;5058560;28;20687;-81
2023/12/28 04:45:32;;;;;;;18.90;1.80;;;8.60;99.90;;;;;;5057881;28;20185;-81
2023/12/28 04:47:58;;;;;;;19.70;1.97;;;8.60;99.90;;;;;;5041848;28;20643;-81
2023/12/28 04:50:24;;;;;;;19.45;2.20;;;8.60;99.90;;;;;;5060850;28;20170;-81
2023/12/28 04:52:50;;;;;;;18.70;1.73;;;8.60;99.90;;;;;;5059870;28;20169;-81
2023/12/28 04:55:15;;;;;;;18.40;1.67;;;8.60;99.90;;;;;;5060537;28;20200;-81
2023/12/28 04:57:42;;;;;;;19.10;2.13;;;8.60;99.90;;;;;;5059844;28;20177;-81
2023/12/28 05:00:08;;;;;;;18.88;1.60;;;8.60;99.90;;;;;;5058833;28;20200;-81
2023/12/28 05:02:34;;;;;;;20.40;2.22;;;8.50;99.90;;;;;;5058960;28;20654;-81
2023/12/28 05:05:00;;;;;;;19.07;1.77;;;8.60;99.90;;;;;;5041441;28;20257;-81
2023/12/28 05:07:25;;;;;;;18.30;1.80;;;8.60;99.90;;;;;;5060147;28;20626;-81
2023/12/28 05:09:51;;;;;;;19.77;1.83;;;8.60;99.90;;;;;;5059761;28;20863;-81
2023/12/28 05:12:17;;;;;;;19.60;2.37;;;8.60;99.90;;;;;;5059921;28;20623;-81
2023/12/28 05:14:43;;;;;;;18.07;1.63;;;8.50;99.90;;;;;;5041330;28;20204;-81
2023/12/28 05:17:08;;;;;;;18.60;1.90;;;8.50;99.90;;;;;;5041962;28;20415;-81
2023/12/28 05:19:34;;;;;;;18.93;2.37;;;8.50;99.90;;;;;;5041267;28;20284;-81
2023/12/28 05:22:03;;;;;;;18.43;2.00;;;8.40;99.90;;;;;;5041452;28;20173;-81
2023/12/28 05:24:29;;;;;;;18.45;2.00;;;8.50;99.90;;;;;;5041031;28;20609;-81
2023/12/28 05:26:55;;;;;;;20.10;1.73;;;8.50;99.90;;;;;;5059811;28;20165;-81
2023/12/28 05:29:20;;;;;;;19.47;1.60;;;8.40;99.90;;;;;;5041199;28;20267;-81
2023/12/28 05:31:49;;;;;;;19.00;2.17;;;8.40;99.90;;;;;;5058988;28;20165;-81
2023/12/28 05:34:15;;;;;;;18.30;1.80;;;8.40;99.90;;;;;;5059353;28;20200;-81
2023/12/28 05:36:41;;;;;;;18.93;1.80;;;8.30;99.90;;;;;;5059740;28;20176;-81
2023/12/28 05:39:09;;;;;;;18.45;1.85;;;8.20;99.90;;;;;;5059321;28;20189;-81
2023/12/28 05:41:35;;;;;;;18.95;1.85;;;8.20;99.90;;;;;;5059028;28;20265;-82
2023/12/28 05:44:00;;;;;;;19.20;1.80;;;8.20;99.90;;;;;;5059418;28;20166;-81
2023/12/28 05:46:26;;;;;;;23.50;2.27;;;8.20;99.90;;;;;;5040859;28;20169;-81
2023/12/28 05:48:52;;;;;;;18.47;1.93;;;8.10;99.90;;;;;;5058887;28;20265;-81
2023/12/28 05:51:18;;;;;;;19.00;1.73;;;8.10;99.90;;;;;;5058708;28;20169;-81
2023/12/28 05:53:44;;;;;;;20.17;2.40;;;8.20;99.90;;;;;;5040713;28;20169;-81
2023/12/28 05:58:38;;;;;;;19.92;2.17;;;8.20;99.90;;;;;;5054749;28;20463;-82
2023/12/28 06:01:07;;;;;;;19.50;2.15;;;8.20;99.90;;;;;;5056690;28;20166;-81
2023/12/28 06:03:36;;;;;;;21.63;2.28;;;8.20;99.90;;;;;;5039717;28;20258;-82
2023/12/28 06:06:01;;;;;;;19.08;1.92;;;8.10;99.90;;;;;;5057491;28;20182;-81
2023/12/28 06:08:27;;;;;;;19.60;2.07;;;8.10;99.90;;;;;;5056118;28;20165;-79
2023/12/28 06:10:55;;;;;;;21.37;2.67;;;8.00;99.90;;;;;;5038762;28;20169;-79
2023/12/28 06:13:21;;;;;;;22.45;2.28;;;8.00;99.90;;;;;;5056380;28;20173;-79
2023/12/28 06:15:47;;;;;;;19.93;1.90;;;8.00;99.90;;;;;;5038221;28;20196;-81
2023/12/28 06:18:12;;;;;;;21.77;2.50;;;8.00;99.90;;;;;;5056930;28;20172;-81
2023/12/28 06:20:38;;;;;;;20.80;2.30;;;7.90;99.90;;;;;;5059504;28;20678;-82
2023/12/28 06:23:04;;;;;;;20.10;2.33;;;7.90;99.90;;;;;;5057395;28;20629;-82
2023/12/28 06:25:29;;;;;;;19.27;1.93;;;7.90;99.90;;;;;;5057111;28;20188;-82
2023/12/28 06:27:55;;;;;;;21.23;2.80;;;7.80;99.90;;;;;;5039713;28;20196;-82
2023/12/28 06:30:21;;;;;;;21.67;3.07;;;7.80;99.90;;;;;;5039481;28;20173;-81
2023/12/28 06:32:46;;;;;;;26.50;3.27;;;7.80;99.90;;;;;;5057264;28;20180;-81
2023/12/28 06:35:12;;;;;;;22.27;3.03;;;7.80;99.90;;;;;;5056805;28;20189;-82
2023/12/28 06:37:37;;;;;;;20.63;2.63;;;7.80;99.90;;;;;;5038687;28;20157;-81
2023/12/28 06:40:03;;;;;;;21.17;2.03;;;7.90;99.90;;;;;;5056767;28;20264;-81
2023/12/28 06:42:32;;;;;;;19.00;2.10;;;7.90;99.90;;;;;;5056862;28;20180;-81
2023/12/28 06:44:58;;;;;;;21.73;2.42;;;7.80;99.90;;;;;;5056527;28;20188;-81
2023/12/28 06:47:24;;;;;;;19.10;2.33;;;7.70;99.90;;;;;;5039701;28;20630;-81
2023/12/28 06:49:49;;;;;;;22.50;2.80;;;7.80;99.90;;;;;;5038596;28;20642;-81
2023/12/28 06:52:16;;;;;;;19.50;2.80;;;7.80;99.90;;;;;;5056156;28;20172;-81
2023/12/28 06:54:41;;;;;;;21.58;2.45;;;7.70;99.90;;;;;;5056616;28;20321;-81
2023/12/28 06:57:10;;;;;;;19.77;2.70;;;7.70;99.90;;;;;;5056117;28;20283;-81
2023/12/28 06:59:35;;;;;;;20.40;2.95;;;7.70;99.90;;;;;;5056192;28;20283;-81
2023/12/28 07:02:01;;;;;;;19.83;2.40;;;7.70;99.90;;;;;;5056160;28;20197;-81
2023/12/28 07:04:29;;;;;;;22.10;2.70;;;7.60;99.90;;;;;;5056064;28;20181;-81
2023/12/28 07:06:55;;;;;;;20.40;2.55;;;7.60;99.90;;;;;;5055747;28;20254;-80
2023/12/28 07:09:23;;;;;;;19.40;2.25;;;7.60;99.90;;;;;;5055401;28;20193;-81
2023/12/28 07:11:49;;;;;;;18.90;2.13;;;7.60;99.90;;;;;;5037307;28;20263;-80
2023/12/28 07:14:15;;;;;;;19.43;1.97;;;7.60;99.90;;;;;;5054707;28;20192;-81
2023/12/28 07:16:44;;;;;;;24.53;2.10;;;7.50;99.90;;;;;;5054955;28;20231;-81
2023/12/28 07:19:09;;;;;;;19.55;2.30;;;7.50;99.90;;;;;;5056089;28;20223;-81
2023/12/28 07:21:35;;;;;;;20.30;2.23;;;7.50;99.90;;;;;;5056787;28;20519;-81
2023/12/28 07:24:00;;;;;;;21.43;2.27;;;7.60;99.90;;;;;;5055836;28;20638;-81
2023/12/28 07:26:26;;;;;;;20.70;2.40;;;7.60;99.90;;;;;;5056173;28;20165;-81
2023/12/28 07:28:52;;;;;;;22.20;2.87;;;7.60;99.90;;;;;;5038311;28;20169;-81
2023/12/28 07:31:28;;;;;;;19.87;2.60;;;7.60;99.90;;;;;;5037889;28;20408;-81
2023/12/28 07:33:54;;;;;;;19.33;2.33;;;7.70;99.90;;;;;;5037922;28;20201;-81
2023/12/28 07:36:20;;;;;;;20.63;2.45;;;7.60;99.90;;;;;;5055803;28;20181;-81
2023/12/28 07:38:46;;;;;;;20.52;2.70;;;7.70;99.90;;;;;;5037671;28;20169;-82
2023/12/28 07:41:12;;;;;;;19.40;2.33;;;7.60;99.90;;;;;;5037868;28;20173;-81
2023/12/28 07:43:38;;;;;;;19.43;2.30;;;7.70;99.90;;;;;;5056361;28;20215;-81
2023/12/28 07:46:04;;;;;;;21.83;2.20;;;7.70;99.90;;;;;;5037970;28;20562;-81
2023/12/28 07:48:30;;;;;;;18.90;2.10;;;7.60;99.90;;;;;;5055880;28;20712;-81
2023/12/28 07:51:03;;;;;;;20.17;1.95;;;7.60;99.90;;;;;;5056841;28;20404;-81
2023/12/28 07:53:29;;;;;;;19.30;2.38;;;7.70;99.90;;;;;;5057201;28;20150;-82
2023/12/28 07:55:56;;;;;;;21.03;2.50;;;7.60;99.90;;;;;;5056097;28;20185;-82
2023/12/28 07:58:21;;;;;;;19.25;2.10;;;7.60;99.90;;;;;;5055765;28;20177;-82
2023/12/28 08:00:47;;;;;;;21.10;2.17;;;7.60;99.90;;;;;;5055815;28;20215;-81
2023/12/28 08:03:15;;;;;;;20.77;2.43;;;7.60;99.90;;;;;;5055692;28;20170;-82
2023/12/28 08:05:41;;;;;;;27.02;2.72;;;7.70;99.90;;;;;;5055386;28;20272;-81
2023/12/28 08:08:07;;;;;;;23.25;2.42;;;7.70;99.90;;;;;;5055363;28;20166;-81
2023/12/28 08:10:33;;;;;;;19.80;2.10;;;7.70;99.90;;;;;;5055519;28;20165;-82
2023/12/28 08:12:59;;;;;;;21.02;2.30;;;7.70;99.90;;;;;;5055574;28;20170;-81
2023/12/28 08:15:24;;;;;;;20.03;2.13;;;7.80;99.90;;;;;;5055814;28;20184;-81
2023/12/28 08:17:50;;;;;;;24.40;2.80;;;7.80;99.90;;;;;;5055308;28;20199;-81
2023/12/28 08:20:16;;;;;;;23.13;2.20;;;7.80;99.90;;;;;;5055291;28;20200;-81
2023/12/28 08:22:42;;;;;;;23.50;2.58;;;7.90;99.90;;;;;;5055502;28;20161;-80
2023/12/28 08:25:08;;;;;;;21.90;2.20;;;7.90;99.90;;;;;;5037132;28;20189;-81
2023/12/28 08:27:33;;;;;;;19.30;2.20;;;8.00;99.90;;;;;;5055172;28;20164;-80
2023/12/28 08:29:59;;;;;;;20.13;2.20;;;8.00;99.90;;;;;;5037167;28;20415;-81
2023/12/28 08:32:25;;;;;;;21.23;2.80;;;8.00;99.90;;;;;;5055291;28;20169;-81
2023/12/28 08:34:50;;;;;;;19.10;2.27;;;8.00;99.90;;;;;;5055866;28;20184;-81
2023/12/28 08:37:16;;;;;;;20.93;2.47;;;8.10;99.90;;;;;;5040967;28;20169;-81
2023/12/28 08:39:42;;;;;;;19.30;2.20;;;8.10;99.90;;;;;;5058475;28;20197;-80
2023/12/28 08:42:07;;;;;;;20.53;2.73;;;8.10;99.90;;;;;;5058653;28;20637;-80
2023/12/28 08:44:33;;;;;;;18.80;1.80;;;8.20;99.90;;;;;;5057721;28;20185;-80
2023/12/28 08:46:59;;;;;;;19.60;2.00;;;8.20;99.90;;;;;;5057455;28;20218;-80
2023/12/28 08:49:25;;;;;;;19.70;2.00;;;8.30;99.90;;;;;;5039446;28;20268;-79
2023/12/28 08:51:51;;;;;;;20.10;2.17;;;8.30;99.90;;;;;;5057369;28;20323;-80
2023/12/28 08:54:16;;;;;;;19.80;2.50;;;8.40;99.90;;;;;;5057125;28;20633;-80
2023/12/28 08:56:43;;;;;;;24.27;2.40;;;8.50;99.90;;;;;;5057167;28;20459;-80
2023/12/28 08:59:09;;;;;;;22.55;3.30;;;8.50;99.90;;;;;;5039223;28;20578;-80
2023/12/28 09:01:34;;;;;;;21.43;2.20;;;8.60;99.90;;;;;;5039175;28;20173;-80
2023/12/28 09:04:01;;;;;;;19.20;2.03;;;8.70;99.90;;;;;;5057299;28;20191;-80
2023/12/28 09:06:26;;;;;;;18.90;1.80;;;8.70;99.90;;;;;;5057407;28;20192;-80
2023/12/28 09:08:52;;;;;;;20.20;1.87;;;8.80;99.90;;;;;;5039174;28;20169;-80
2023/12/28 09:11:19;;;;;;;19.10;1.80;;;8.90;99.90;;;;;;5056734;28;20621;-80
2023/12/28 09:13:44;;;;;;;19.90;2.05;;;9.00;99.90;;;;;;5056610;28;20412;-79
2023/12/28 09:16:12;;;;;;;19.20;2.13;;;9.10;99.90;;;;;;5057275;28;20677;-80
2023/12/28 09:18:39;;;;;;;23.55;2.33;;;9.20;99.90;;;;;;5126696;22;20932;-80
2023/12/28 09:23:33;;;;;;;19.85;2.05;;;9.40;99.90;;;;;;5074649;28;20589;-80
2023/12/28 09:26:00;;;;;;;22.25;2.05;;;9.50;99.90;;;;;;5063292;28;20256;-79
2023/12/28 09:30:54;;;;;;;22.88;3.00;;;9.70;97.20;;;;;;5096639;28;20208;-81
2023/12/28 09:33:20;;;;;;;22.93;1.60;;;9.70;95.20;;;;;;5081874;28;20253;-80
2023/12/28 09:35:47;;;;;;;17.93;2.20;;;9.80;91.10;;;;;;5085096;28;20188;-80
2023/12/28 09:38:13;;;;;;;24.65;1.98;;;9.90;88.00;;;;;;5078885;28;20164;-80
2023/12/28 09:40:42;;;;;;;20.80;2.05;;;9.90;88.60;;;;;;5060850;28;20200;-80
2023/12/28 09:43:23;;;;;;;18.90;1.63;;;10.00;82.30;;;;;;5061852;28;20199;-81
2023/12/28 09:45:49;;;;;;;18.70;1.25;;;10.00;82.60;;;;;;5061081;28;20192;-80
2023/12/28 09:48:19;;;;;;;17.67;1.70;;;10.10;72.20;;;;;;5078989;28;20538;-80
2023/12/28 09:50:50;;;;;;;21.65;2.53;;;10.20;60.40;;;;;;5079424;28;20165;-80
2023/12/28 09:53:16;;;;;;;19.60;1.65;;;10.40;58.90;;;;;;5061609;28;20180;-81
2023/12/28 09:55:44;;;;;;;18.10;1.50;;;10.40;51.20;;;;;;5078579;28;20192;-81
2023/12/28 09:58:10;;;;;;;18.33;1.90;;;10.50;49.60;;;;;;5060692;28;20169;-81
2023/12/28 10:00:37;;;;;;;18.10;1.65;;;10.60;52.10;;;;;;5060407;28;20707;-80
2023/12/28 10:03:03;;;;;;;22.27;2.08;;;10.80;40.90;;;;;;5060665;28;20157;-81
2023/12/28 10:05:29;;;;;;;20.10;2.00;;;10.90;32.70;;;;;;5078747;28;20180;-80
2023/12/28 10:07:56;;;;;;;18.50;1.83;;;10.90;29.70;;;;;;5078350;28;20527;-80
2023/12/28 10:10:22;;;;;;;19.15;1.83;;;11.00;24.40;;;;;;5078272;28;20161;-81
2023/12/28 10:12:48;;;;;;;17.87;1.70;;;11.10;17.60;;;;;;5078491;28;20256;-80
2023/12/28 10:15:14;;;;;;;20.43;2.20;;;11.10;20.80;;;;;;5060324;28;20223;-80
2023/12/28 10:17:39;;;;;;;18.33;1.83;;;11.20;22.60;;;;;;5060417;28;20445;-80
2023/12/28 10:20:09;;;;;;;20.07;1.80;;;11.30;15.80;;;;;;5078010;28;20184;-81
2023/12/28 10:22:36;;;;;;;16.45;1.40;;;11.30;9.90;;;;;;5078119;28;20160;-81
2023/12/28 10:25:05;;;;;;;24.85;2.15;;;11.30;1.00;;;;;;5077870;28;20711;-81
2023/12/28 10:27:31;;;;;;;20.75;1.75;;;11.20;1.00;;;;;;5078307;28;20194;-81
2023/12/28 10:29:57;;;;;;;20.37;1.80;;;11.30;1.00;;;;;;5078410;28;20188;-81
2023/12/28 10:32:24;;;;;;;17.80;2.30;;;11.40;1.00;;;;;;5060490;28;20475;-81
2023/12/28 10:34:53;;;;;;;18.33;1.85;;;11.40;1.00;;;;;;5059990;28;20789;-81
2023/12/28 10:37:20;;;;;;;18.02;1.73;;;11.40;1.00;;;;;;5060210;28;20277;-80
2023/12/28 10:39:49;;;;;;;18.50;2.08;;;11.40;1.00;;;;;;5077688;28;20550;-80
2023/12/28 10:42:30;;;;;;;18.95;2.05;;;11.50;1.00;;;;;;5078031;28;20238;-81
2023/12/28 10:45:04;;;;;;;20.17;1.88;;;11.50;1.00;;;;;;5059935;28;20208;-81
2023/12/28 10:47:33;;;;;;;20.25;1.63;;;11.50;1.00;;;;;;5060366;28;20153;-80
2023/12/28 10:50:02;;;;;;;20.00;2.10;;;11.50;1.00;;;;;;5077666;28;20188;-81
2023/12/28 10:52:30;;;;;;;17.10;1.42;;;11.50;1.00;;;;;;5060024;28;20173;-81
2023/12/28 10:55:20;;;;;;;18.20;1.60;;;11.60;1.00;;;;;;5060851;28;20193;-81
2023/12/28 10:58:03;;;;;;;19.52;1.65;;;11.60;1.00;;;;;;5078120;28;20156;-81
2023/12/28 11:00:33;;;;;;;24.23;1.65;;;11.60;1.00;;;;;;5062200;28;20624;-80
2023/12/28 11:03:05;;;;;;;24.67;2.22;;;11.70;1.00;;;;;;5078699;28;20496;-81
2023/12/28 11:05:33;;;;;;;20.40;2.10;;;11.70;1.00;;;;;;5078310;28;20582;-81
2023/12/28 11:08:00;;;;;;;18.75;1.95;;;11.80;1.00;;;;;;5078259;28;20222;-81
2023/12/28 11:10:29;;;;;;;17.98;2.03;;;11.70;1.00;;;;;;5077642;28;20168;-81
2023/12/28 11:12:56;;;;;;;16.83;1.40;;;11.80;1.00;;;;;;5078182;28;20171;-80
2023/12/28 11:15:23;;;;;;;20.40;2.50;;;11.90;1.00;;;;;;5077506;28;20223;-81
2023/12/28 11:17:49;;;;;;;21.73;1.65;;;12.00;1.00;;;;;;5060096;28;20183;-81
2023/12/28 11:20:15;;;;;;;18.90;1.50;;;12.00;1.00;;;;;;5059071;28;20184;-81
2023/12/28 11:22:41;;;;;;;20.00;1.60;;;12.00;1.00;;;;;;5059748;28;20168;-81
2023/12/28 11:25:15;;;;;;;17.20;1.60;;;12.10;1.00;;;;;;5060248;28;20184;-81
2023/12/28 11:27:41;;;;;;;18.13;1.60;;;12.10;1.00;;;;;;5077739;28;20152;-81
2023/12/28 11:30:10;;;;;;;17.63;2.28;;;12.10;1.00;;;;;;5077573;28;20206;-81
2023/12/28 11:32:36;;;;;;;17.95;1.60;;;12.20;1.00;;;;;;5059757;28;20661;-80
2023/12/28 11:35:06;;;;;;;19.48;1.95;;;12.10;1.00;;;;;;5059306;28;20196;-81
2023/12/28 11:37:33;;;;;;;17.23;1.63;;;12.10;1.00;;;;;;5077342;28;20229;-81
2023/12/28 11:40:10;;;;;;;16.60;1.70;;;12.20;1.00;;;;;;5077636;28;20184;-81
2023/12/28 11:42:36;;;;;;;16.50;1.40;;;12.20;1.00;;;;;;5077660;28;20198;-81
2023/12/28 11:45:02;;;;;;;18.00;1.83;;;12.30;1.00;;;;;;5058560;28;20669;-81
2023/12/28 11:47:28;;;;;;;16.17;1.53;;;12.30;1.00;;;;;;5058391;28;20256;-81
2023/12/28 11:49:56;;;;;;;17.43;1.73;;;12.30;1.00;;;;;;5076258;28;20403;-81
2023/12/28 11:52:27;;;;;;;18.92;2.00;;;12.30;1.00;;;;;;5076434;28;20641;-81
2023/12/28 11:54:53;;;;;;;23.25;1.70;;;12.40;1.00;;;;;;5058581;28;20565;-81
2023/12/28 11:57:18;;;;;;;16.70;1.53;;;12.40;1.00;;;;;;5058644;28;20178;-81
2023/12/28 11:59:44;;;;;;;21.10;1.50;;;12.30;1.00;;;;;;5075844;28;20184;-81
2023/12/28 12:02:11;;;;;;;17.63;1.77;;;12.10;1.00;;;;;;5057575;28;20638;-79
2023/12/28 12:04:37;;;;;;;17.60;1.70;;;12.10;1.00;;;;;;5076053;28;20234;-81
2023/12/28 12:07:04;;;;;;;19.83;2.00;;;12.10;1.00;;;;;;5076077;28;20172;-81
2023/12/28 12:09:34;;;;;;;19.40;1.77;;;12.20;1.00;;;;;;5059951;28;20404;-81
2023/12/28 12:12:04;;;;;;;22.58;1.60;;;12.30;1.00;;;;;;5063216;28;20210;-81
2023/12/28 12:14:30;;;;;;;19.58;1.70;;;12.30;1.00;;;;;;5061473;28;20609;-81
2023/12/28 12:16:56;;;;;;;17.90;1.75;;;12.30;1.00;;;;;;5061994;28;20168;-80
2023/12/28 12:19:26;;;;;;;19.92;1.88;;;12.30;1.00;;;;;;5061775;28;20184;-81
2023/12/28 12:21:58;;;;;;;16.63;1.45;;;12.20;1.00;;;;;;5080761;28;20503;-81
2023/12/28 12:24:27;;;;;;;17.80;1.45;;;12.20;1.00;;;;;;5081220;28;20587;-81
2023/12/28 12:26:53;;;;;;;17.25;1.48;;;12.30;1.00;;;;;;5062561;28;20529;-81
2023/12/28 12:29:19;;;;;;;20.87;1.77;;;12.30;1.00;;;;;;5063116;28;20198;-81
2023/12/28 12:31:46;;;;;;;16.90;1.70;;;12.20;1.00;;;;;;5082213;28;20168;-81
2023/12/28 12:34:16;;;;;;;17.15;1.70;;;12.30;1.00;;;;;;5083135;28;20506;-81
2023/12/28 12:36:41;;;;;;;21.00;2.72;;;12.30;1.00;;;;;;5081394;28;20196;-81
2023/12/28 12:39:09;;;;;;;17.20;1.40;;;12.30;1.00;;;;;;5063304;28;20176;-81
2023/12/28 12:41:35;;;;;;;18.25;1.50;;;12.30;1.00;;;;;;5080987;28;20216;-81
2023/12/28 12:44:01;;;;;;;21.48;2.00;;;12.40;1.00;;;;;;5062292;28;20184;-81
2023/12/28 12:46:28;;;;;;;16.40;1.10;;;12.40;1.00;;;;;;5080570;28;20157;-81
2023/12/28 12:49:02;;;;;;;16.52;1.60;;;12.30;1.00;;;;;;5062144;28;20171;-81
2023/12/28 12:51:28;;;;;;;16.38;1.20;;;12.40;1.00;;;;;;5080274;28;20632;-81